sensor_id;sensor_type;location;lat;lon;timestamp;temperature;humidity
31747;DHT22;18319;48.974;8.462;2024-02-15T00:01:48;11.90;99.90
31747;DHT22;18319;48.974;8.462;2024-02-15T00:04:15;11.80;99.90
31747;DHT22;18319;48.974;8.462;2024-02-15T00:06:44;11.70;99.90
31747;DHT22;18319;48.974;8.462;2024-02-15T00:09:14;11.70;99.90
31747;DHT22;18319;48.974;8.462;2024-02-15T00:11:40;11.50;99.90
31747;DHT22;18319;48.974;8.462;2024-02-15T00:14:07;11.60;99.90
31747;DHT22;18319;48.974;8.462;2024-02-15T00:16:34;11.60;99.90
31747;DHT22;18319;48.974;8.462;2024-02-15T00:19:01;11.60;99.90
31747;DHT22;18319;48.974;8.462;2024-02-15T00:21:28;11.50;99.90
31747;DHT22;18319;48.974;8.462;2024-02-15T00:23:56;11.50;99.90
31747;DHT22;18319;48.974;8.462;2024-02-15T00:26:25;11.50;99.90
31747;DHT22;18319;48.974;8.462;2024-02-15T00:28:52;11.50;99.90
31747;DHT22;18319;48.974;8.462;2024-02-15T00:31:18;11.40;99.90
31747;DHT22;18319;48.974;8.462;2024-02-15T00:33:45;11.50;99.90
31747;DHT22;18319;48.974;8.462;2024-02-15T00:36:12;11.50;99.90
31747;DHT22;18319;48.974;8.462;2024-02-15T00:38:39;11.40;99.90
31747;DHT22;18319;48.974;8.462;2024-02-15T00:41:07;11.30;99.90
31747;DHT22;18319;48.974;8.462;2024-02-15T00:43:34;11.20;99.90
31747;DHT22;18319;48.974;8.462;2024-02-15T00:46:02;11.30;99.90
31747;DHT22;18319;48.974;8.462;2024-02-15T00:48:28;11.30;99.90
31747;DHT22;18319;48.974;8.462;2024-02-15T00:50:55;11.20;99.90
31747;DHT22;18319;48.974;8.462;2024-02-15T00:53:23;11.10;99.90
31747;DHT22;18319;48.974;8.462;2024-02-15T00:55:51;11.00;99.90
31747;DHT22;18319;48.974;8.462;2024-02-15T00:58:19;11.00;99.90
31747;DHT22;18319;48.974;8.462;2024-02-15T01:00:47;10.90;99.90
31747;DHT22;18319;48.974;8.462;2024-02-15T01:03:15;11.00;99.90
31747;DHT22;18319;48.974;8.462;2024-02-15T01:05:41;10.90;99.90
31747;DHT22;18319;48.974;8.462;2024-02-15T01:08:08;11.00;99.90
31747;DHT22;18319;48.974;8.462;2024-02-15T01:10:35;10.90;99.90
31747;DHT22;18319;48.974;8.462;2024-02-15T01:13:02;10.90;99.90
31747;DHT22;18319;48.974;8.462;2024-02-15T01:15:30;10.90;99.90
31747;DHT22;18319;48.974;8.462;2024-02-15T01:17:57;10.90;99.90
31747;DHT22;18319;48.974;8.462;2024-02-15T01:20:24;10.80;99.90
31747;DHT22;18319;48.974;8.462;2024-02-15T01:22:51;10.80;99.90
31747;DHT22;18319;48.974;8.462;2024-02-15T01:25:17;10.80;99.90
31747;DHT22;18319;48.974;8.462;2024-02-15T01:27:44;10.80;99.90
31747;DHT22;18319;48.974;8.462;2024-02-15T01:30:11;10.90;99.90
31747;DHT22;18319;48.974;8.462;2024-02-15T01:32:40;10.90;99.90
31747;DHT22;18319;48.974;8.462;2024-02-15T01:35:07;10.90;99.90
31747;DHT22;18319;48.974;8.462;2024-02-15T01:37:35;11.00;99.90
31747;DHT22;18319;48.974;8.462;2024-02-15T01:40:02;11.00;99.90
31747;DHT22;18319;48.974;8.462;2024-02-15T01:42:32;11.00;99.90
31747;DHT22;18319;48.974;8.462;2024-02-15T01:44:58;11.10;99.90
31747;DHT22;18319;48.974;8.462;2024-02-15T01:47:25;11.20;99.90
31747;DHT22;18319;48.974;8.462;2024-02-15T01:49:53;11.30;99.90
31747;DHT22;18319;48.974;8.462;2024-02-15T01:52:21;11.40;99.90
31747;DHT22;18319;48.974;8.462;2024-02-15T01:54:48;11.50;99.90
31747;DHT22;18319;48.974;8.462;2024-02-15T01:57:16;11.60;99.90
31747;DHT22;18319;48.974;8.462;2024-02-15T01:59:43;11.60;99.90
31747;DHT22;18319;48.974;8.462;2024-02-15T02:02:13;11.70;99.90
31747;DHT22;18319;48.974;8.462;2024-02-15T02:04:41;11.70;99.90
31747;DHT22;18319;48.974;8.462;2024-02-15T02:07:09;11.70;99.90
31747;DHT22;18319;48.974;8.462;2024-02-15T02:09:37;11.70;99.90
31747;DHT22;18319;48.974;8.462;2024-02-15T02:12:04;11.80;99.90
31747;DHT22;18319;48.974;8.462;2024-02-15T02:14:32;11.70;99.90
31747;DHT22;18319;48.974;8.462;2024-02-15T02:17:11;11.70;99.90
31747;DHT22;18319;48.974;8.462;2024-02-15T02:19:39;11.80;99.90
31747;DHT22;18319;48.974;8.462;2024-02-15T02:22:05;11.70;99.90
31747;DHT22;18319;48.974;8.462;2024-02-15T02:27:13;11.80;99.90
31747;DHT22;18319;48.974;8.462;2024-02-15T02:29:43;11.80;99.90
31747;DHT22;18319;48.974;8.462;2024-02-15T02:32:11;11.70;99.90
31747;DHT22;18319;48.974;8.462;2024-02-15T02:34:38;11.70;99.90
31747;DHT22;18319;48.974;8.462;2024-02-15T02:37:06;11.80;99.90
31747;DHT22;18319;48.974;8.462;2024-02-15T02:39:33;12.00;99.90
31747;DHT22;18319;48.974;8.462;2024-02-15T02:42:00;12.00;99.90
31747;DHT22;18319;48.974;8.462;2024-02-15T02:44:28;11.90;99.90
31747;DHT22;18319;48.974;8.462;2024-02-15T02:46:57;11.90;99.90
31747;DHT22;18319;48.974;8.462;2024-02-15T02:49:23;11.90;99.90
31747;DHT22;18319;48.974;8.462;2024-02-15T02:51:50;11.80;99.90
31747;DHT22;18319;48.974;8.462;2024-02-15T02:54:17;11.80;99.90
31747;DHT22;18319;48.974;8.462;2024-02-15T02:56:45;11.90;99.90
31747;DHT22;18319;48.974;8.462;2024-02-15T02:59:12;11.90;99.90
31747;DHT22;18319;48.974;8.462;2024-02-15T03:01:40;11.90;99.90
31747;DHT22;18319;48.974;8.462;2024-02-15T03:04:07;11.90;99.90
31747;DHT22;18319;48.974;8.462;2024-02-15T03:06:34;12.00;99.90
31747;DHT22;18319;48.974;8.462;2024-02-15T03:09:01;11.90;99.90
31747;DHT22;18319;48.974;8.462;2024-02-15T03:11:32;12.00;99.90
31747;DHT22;18319;48.974;8.462;2024-02-15T03:14:00;12.00;99.90
31747;DHT22;18319;48.974;8.462;2024-02-15T03:16:29;12.10;99.90
31747;DHT22;18319;48.974;8.462;2024-02-15T03:18:57;11.90;99.90
31747;DHT22;18319;48.974;8.462;2024-02-15T03:21:26;11.70;99.90
31747;DHT22;18319;48.974;8.462;2024-02-15T03:23:53;11.70;99.90
31747;DHT22;18319;48.974;8.462;2024-02-15T03:26:30;11.70;99.90
31747;DHT22;18319;48.974;8.462;2024-02-15T03:28:59;11.80;99.90
31747;DHT22;18319;48.974;8.462;2024-02-15T03:31:25;11.90;99.90
31747;DHT22;18319;48.974;8.462;2024-02-15T03:33:52;11.90;99.90
31747;DHT22;18319;48.974;8.462;2024-02-15T03:36:21;11.90;99.90
31747;DHT22;18319;48.974;8.462;2024-02-15T03:38:48;11.90;99.90
31747;DHT22;18319;48.974;8.462;2024-02-15T03:41:15;11.80;99.90
31747;DHT22;18319;48.974;8.462;2024-02-15T03:43:42;11.80;99.90
31747;DHT22;18319;48.974;8.462;2024-02-15T03:46:08;11.80;99.90
31747;DHT22;18319;48.974;8.462;2024-02-15T03:48:37;11.80;99.90
31747;DHT22;18319;48.974;8.462;2024-02-15T03:51:04;11.80;99.90
31747;DHT22;18319;48.974;8.462;2024-02-15T03:53:33;11.80;99.90
31747;DHT22;18319;48.974;8.462;2024-02-15T03:56:03;11.80;99.90
31747;DHT22;18319;48.974;8.462;2024-02-15T03:58:30;11.70;99.90
31747;DHT22;18319;48.974;8.462;2024-02-15T04:00:58;11.70;99.90
31747;DHT22;18319;48.974;8.462;2024-02-15T04:03:25;11.70;99.90
31747;DHT22;18319;48.974;8.462;2024-02-15T04:05:52;11.80;99.90
31747;DHT22;18319;48.974;8.462;2024-02-15T04:08:20;11.80;99.90
31747;DHT22;18319;48.974;8.462;2024-02-15T04:10:48;12.00;99.90
31747;DHT22;18319;48.974;8.462;2024-02-15T04:13:15;12.00;99.90
31747;DHT22;18319;48.974;8.462;2024-02-15T04:15:42;12.00;99.90
31747;DHT22;18319;48.974;8.462;2024-02-15T04:18:09;12.10;99.90
31747;DHT22;18319;48.974;8.462;2024-02-15T04:20:36;12.10;99.90
31747;DHT22;18319;48.974;8.462;2024-02-15T04:23:03;12.00;99.90
31747;DHT22;18319;48.974;8.462;2024-02-15T04:25:30;12.00;99.90
31747;DHT22;18319;48.974;8.462;2024-02-15T04:27:58;11.90;99.90
31747;DHT22;18319;48.974;8.462;2024-02-15T04:30:29;11.80;99.90
31747;DHT22;18319;48.974;8.462;2024-02-15T04:32:55;12.00;99.90
31747;DHT22;18319;48.974;8.462;2024-02-15T04:35:22;11.90;99.90
31747;DHT22;18319;48.974;8.462;2024-02-15T04:37:50;11.80;99.90
31747;DHT22;18319;48.974;8.462;2024-02-15T04:40:18;11.80;99.90
31747;DHT22;18319;48.974;8.462;2024-02-15T04:42:45;11.70;99.90
31747;DHT22;18319;48.974;8.462;2024-02-15T04:45:14;11.80;99.90
31747;DHT22;18319;48.974;8.462;2024-02-15T04:47:41;11.90;99.90
31747;DHT22;18319;48.974;8.462;2024-02-15T04:50:09;11.90;99.90
31747;DHT22;18319;48.974;8.462;2024-02-15T04:52:36;11.80;99.90
31747;DHT22;18319;48.974;8.462;2024-02-15T04:55:03;11.80;99.90
31747;DHT22;18319;48.974;8.462;2024-02-15T04:57:31;11.80;99.90
31747;DHT22;18319;48.974;8.462;2024-02-15T05:00:00;11.70;99.90
31747;DHT22;18319;48.974;8.462;2024-02-15T05:02:28;11.80;99.90
31747;DHT22;18319;48.974;8.462;2024-02-15T05:04:55;11.90;99.90
31747;DHT22;18319;48.974;8.462;2024-02-15T05:07:22;11.70;99.90
31747;DHT22;18319;48.974;8.462;2024-02-15T05:09:49;11.60;99.90
31747;DHT22;18319;48.974;8.462;2024-02-15T05:12:22;11.70;99.90
31747;DHT22;18319;48.974;8.462;2024-02-15T05:14:49;11.60;99.90
31747;DHT22;18319;48.974;8.462;2024-02-15T05:17:16;11.80;99.90
31747;DHT22;18319;48.974;8.462;2024-02-15T05:19:44;11.60;99.90
31747;DHT22;18319;48.974;8.462;2024-02-15T05:22:11;11.80;99.90
31747;DHT22;18319;48.974;8.462;2024-02-15T05:24:39;11.80;99.90
31747;DHT22;18319;48.974;8.462;2024-02-15T05:27:07;11.60;99.90
31747;DHT22;18319;48.974;8.462;2024-02-15T05:29:34;11.70;99.90
31747;DHT22;18319;48.974;8.462;2024-02-15T05:32:01;11.70;99.90
31747;DHT22;18319;48.974;8.462;2024-02-15T05:34:28;11.70;99.90
31747;DHT22;18319;48.974;8.462;2024-02-15T05:36:57;11.60;99.90
31747;DHT22;18319;48.974;8.462;2024-02-15T05:39:23;11.70;99.90
31747;DHT22;18319;48.974;8.462;2024-02-15T05:41:50;11.80;99.90
31747;DHT22;18319;48.974;8.462;2024-02-15T05:44:17;11.80;99.90
31747;DHT22;18319;48.974;8.462;2024-02-15T05:46:46;11.70;99.90
31747;DHT22;18319;48.974;8.462;2024-02-15T05:49:13;11.70;99.90
31747;DHT22;18319;48.974;8.462;2024-02-15T05:51:43;11.80;99.90
31747;DHT22;18319;48.974;8.462;2024-02-15T05:54:11;11.80;99.90
31747;DHT22;18319;48.974;8.462;2024-02-15T05:56:38;11.80;99.90
31747;DHT22;18319;48.974;8.462;2024-02-15T05:59:05;11.70;99.90
31747;DHT22;18319;48.974;8.462;2024-02-15T06:01:36;11.70;99.90
31747;DHT22;18319;48.974;8.462;2024-02-15T06:04:03;11.70;99.90
31747;DHT22;18319;48.974;8.462;2024-02-15T06:06:33;11.80;99.90
31747;DHT22;18319;48.974;8.462;2024-02-15T06:09:00;11.60;99.90
31747;DHT22;18319;48.974;8.462;2024-02-15T06:11:29;11.50;99.90
31747;DHT22;18319;48.974;8.462;2024-02-15T06:13:56;11.60;99.90
31747;DHT22;18319;48.974;8.462;2024-02-15T06:16:23;11.60;99.90
31747;DHT22;18319;48.974;8.462;2024-02-15T06:18:49;11.60;99.90
31747;DHT22;18319;48.974;8.462;2024-02-15T06:21:16;11.60;99.90
31747;DHT22;18319;48.974;8.462;2024-02-15T06:23:43;11.60;99.90
31747;DHT22;18319;48.974;8.462;2024-02-15T06:26:10;11.60;99.90
31747;DHT22;18319;48.974;8.462;2024-02-15T06:28:38;11.60;99.90
31747;DHT22;18319;48.974;8.462;2024-02-15T06:31:23;11.70;99.90
31747;DHT22;18319;48.974;8.462;2024-02-15T06:34:07;11.80;99.90
31747;DHT22;18319;48.974;8.462;2024-02-15T06:36:52;11.70;99.90
31747;DHT22;18319;48.974;8.462;2024-02-15T06:39:51;11.50;99.90
31747;DHT22;18319;48.974;8.462;2024-02-15T06:42:18;11.50;99.90
31747;DHT22;18319;48.974;8.462;2024-02-15T06:44:47;11.50;99.90
31747;DHT22;18319;48.974;8.462;2024-02-15T06:47:14;11.50;99.90
31747;DHT22;18319;48.974;8.462;2024-02-15T06:49:45;11.50;99.90
31747;DHT22;18319;48.974;8.462;2024-02-15T06:52:15;11.50;99.90
31747;DHT22;18319;48.974;8.462;2024-02-15T06:54:42;11.40;99.90
31747;DHT22;18319;48.974;8.462;2024-02-15T06:57:09;11.40;99.90
31747;DHT22;18319;48.974;8.462;2024-02-15T06:59:35;11.30;99.90
31747;DHT22;18319;48.974;8.462;2024-02-15T07:02:06;11.30;99.90
31747;DHT22;18319;48.974;8.462;2024-02-15T07:04:33;11.30;99.90
31747;DHT22;18319;48.974;8.462;2024-02-15T07:07:00;11.30;99.90
31747;DHT22;18319;48.974;8.462;2024-02-15T07:09:28;11.40;99.90
31747;DHT22;18319;48.974;8.462;2024-02-15T07:11:54;11.40;99.90
31747;DHT22;18319;48.974;8.462;2024-02-15T07:14:23;11.30;99.90
31747;DHT22;18319;48.974;8.462;2024-02-15T07:16:51;11.30;99.90
31747;DHT22;18319;48.974;8.462;2024-02-15T07:19:19;11.40;99.90
31747;DHT22;18319;48.974;8.462;2024-02-15T07:21:46;11.30;99.90
31747;DHT22;18319;48.974;8.462;2024-02-15T07:24:13;11.40;99.90
31747;DHT22;18319;48.974;8.462;2024-02-15T07:26:40;11.40;99.90
31747;DHT22;18319;48.974;8.462;2024-02-15T07:29:06;11.50;99.90
31747;DHT22;18319;48.974;8.462;2024-02-15T07:31:34;11.50;99.90
31747;DHT22;18319;48.974;8.462;2024-02-15T07:34:00;11.50;99.90
31747;DHT22;18319;48.974;8.462;2024-02-15T07:36:30;11.60;99.90
31747;DHT22;18319;48.974;8.462;2024-02-15T07:38:57;11.50;99.90
31747;DHT22;18319;48.974;8.462;2024-02-15T07:41:26;11.60;99.90
31747;DHT22;18319;48.974;8.462;2024-02-15T07:43:54;11.50;99.90
31747;DHT22;18319;48.974;8.462;2024-02-15T07:46:21;11.50;99.90
31747;DHT22;18319;48.974;8.462;2024-02-15T07:48:49;11.60;99.90
31747;DHT22;18319;48.974;8.462;2024-02-15T07:51:17;11.60;99.90
31747;DHT22;18319;48.974;8.462;2024-02-15T07:53:46;11.60;99.90
31747;DHT22;18319;48.974;8.462;2024-02-15T07:56:14;11.70;99.90
31747;DHT22;18319;48.974;8.462;2024-02-15T07:58:41;11.70;99.90
31747;DHT22;18319;48.974;8.462;2024-02-15T08:01:12;11.70;99.90
31747;DHT22;18319;48.974;8.462;2024-02-15T08:03:38;11.80;99.90
31747;DHT22;18319;48.974;8.462;2024-02-15T08:06:09;11.80;99.90
31747;DHT22;18319;48.974;8.462;2024-02-15T08:08:38;11.90;99.90
31747;DHT22;18319;48.974;8.462;2024-02-15T08:11:08;11.80;99.90
31747;DHT22;18319;48.974;8.462;2024-02-15T08:13:40;11.90;99.90
31747;DHT22;18319;48.974;8.462;2024-02-15T08:16:07;11.90;99.90
31747;DHT22;18319;48.974;8.462;2024-02-15T08:18:34;11.90;99.90
31747;DHT22;18319;48.974;8.462;2024-02-15T08:21:02;11.90;99.90
31747;DHT22;18319;48.974;8.462;2024-02-15T08:23:30;11.90;99.90
31747;DHT22;18319;48.974;8.462;2024-02-15T08:25:57;12.00;99.90
31747;DHT22;18319;48.974;8.462;2024-02-15T08:28:26;12.00;99.90
31747;DHT22;18319;48.974;8.462;2024-02-15T08:30:54;11.90;99.90
31747;DHT22;18319;48.974;8.462;2024-02-15T08:33:21;12.00;99.90
31747;DHT22;18319;48.974;8.462;2024-02-15T08:35:49;12.10;99.90
31747;DHT22;18319;48.974;8.462;2024-02-15T08:38:16;12.20;99.90
31747;DHT22;18319;48.974;8.462;2024-02-15T08:40:44;12.20;99.90
31747;DHT22;18319;48.974;8.462;2024-02-15T08:43:13;12.30;99.90
31747;DHT22;18319;48.974;8.462;2024-02-15T08:45:42;12.40;99.90
31747;DHT22;18319;48.974;8.462;2024-02-15T08:48:09;12.50;99.90
31747;DHT22;18319;48.974;8.462;2024-02-15T08:50:36;12.60;99.90
31747;DHT22;18319;48.974;8.462;2024-02-15T08:53:03;12.60;99.90
31747;DHT22;18319;48.974;8.462;2024-02-15T08:55:31;12.70;99.90
31747;DHT22;18319;48.974;8.462;2024-02-15T08:58:01;12.80;99.90
31747;DHT22;18319;48.974;8.462;2024-02-15T09:00:29;12.90;99.90
31747;DHT22;18319;48.974;8.462;2024-02-15T09:02:57;12.90;99.90
31747;DHT22;18319;48.974;8.462;2024-02-15T09:05:24;12.80;99.90
31747;DHT22;18319;48.974;8.462;2024-02-15T09:07:51;12.90;99.90
31747;DHT22;18319;48.974;8.462;2024-02-15T09:10:18;12.90;99.90
31747;DHT22;18319;48.974;8.462;2024-02-15T09:12:48;13.00;99.90
31747;DHT22;18319;48.974;8.462;2024-02-15T09:15:15;13.00;99.90
31747;DHT22;18319;48.974;8.462;2024-02-15T09:17:43;13.10;99.90
31747;DHT22;18319;48.974;8.462;2024-02-15T09:20:14;13.20;99.90
31747;DHT22;18319;48.974;8.462;2024-02-15T09:22:41;13.30;99.90
31747;DHT22;18319;48.974;8.462;2024-02-15T09:25:09;13.30;99.90
31747;DHT22;18319;48.974;8.462;2024-02-15T09:27:36;13.40;99.90
31747;DHT22;18319;48.974;8.462;2024-02-15T09:30:04;13.40;99.90
31747;DHT22;18319;48.974;8.462;2024-02-15T09:32:33;13.60;99.90
31747;DHT22;18319;48.974;8.462;2024-02-15T09:35:01;13.60;99.90
31747;DHT22;18319;48.974;8.462;2024-02-15T09:37:29;13.70;99.90
31747;DHT22;18319;48.974;8.462;2024-02-15T09:39:58;13.80;99.90
31747;DHT22;18319;48.974;8.462;2024-02-15T09:42:30;14.00;99.90
31747;DHT22;18319;48.974;8.462;2024-02-15T09:45:00;13.90;99.90
31747;DHT22;18319;48.974;8.462;2024-02-15T09:47:30;13.90;99.90
31747;DHT22;18319;48.974;8.462;2024-02-15T09:49:59;13.80;99.90
31747;DHT22;18319;48.974;8.462;2024-02-15T09:52:27;13.70;99.90
31747;DHT22;18319;48.974;8.462;2024-02-15T09:54:59;13.70;99.90
31747;DHT22;18319;48.974;8.462;2024-02-15T09:57:27;13.70;99.90
31747;DHT22;18319;48.974;8.462;2024-02-15T09:59:54;13.70;99.90
31747;DHT22;18319;48.974;8.462;2024-02-15T10:02:22;14.10;99.90
31747;DHT22;18319;48.974;8.462;2024-02-15T10:04:49;14.00;99.90
31747;DHT22;18319;48.974;8.462;2024-02-15T10:07:16;14.20;99.90
31747;DHT22;18319;48.974;8.462;2024-02-15T10:09:43;14.30;99.90
31747;DHT22;18319;48.974;8.462;2024-02-15T10:12:12;14.30;99.90
31747;DHT22;18319;48.974;8.462;2024-02-15T10:14:38;14.30;99.90
31747;DHT22;18319;48.974;8.462;2024-02-15T10:17:15;14.50;99.90
31747;DHT22;18319;48.974;8.462;2024-02-15T10:19:42;14.60;99.90
31747;DHT22;18319;48.974;8.462;2024-02-15T10:22:10;14.60;99.90
31747;DHT22;18319;48.974;8.462;2024-02-15T10:24:38;14.60;99.90
31747;DHT22;18319;48.974;8.462;2024-02-15T10:27:05;14.60;99.90
31747;DHT22;18319;48.974;8.462;2024-02-15T10:29:34;14.80;99.90
31747;DHT22;18319;48.974;8.462;2024-02-15T10:32:01;14.70;99.90
31747;DHT22;18319;48.974;8.462;2024-02-15T10:34:29;14.80;99.90
31747;DHT22;18319;48.974;8.462;2024-02-15T10:37:10;15.00;99.90
31747;DHT22;18319;48.974;8.462;2024-02-15T10:39:38;15.10;99.90
31747;DHT22;18319;48.974;8.462;2024-02-15T10:42:07;15.20;99.90
31747;DHT22;18319;48.974;8.462;2024-02-15T10:44:38;15.20;99.90
31747;DHT22;18319;48.974;8.462;2024-02-15T10:47:06;15.20;99.90
31747;DHT22;18319;48.974;8.462;2024-02-15T10:49:34;15.30;99.90
31747;DHT22;18319;48.974;8.462;2024-02-15T10:52:01;15.30;99.90
31747;DHT22;18319;48.974;8.462;2024-02-15T10:54:41;15.50;99.90
31747;DHT22;18319;48.974;8.462;2024-02-15T10:57:10;15.50;99.90
31747;DHT22;18319;48.974;8.462;2024-02-15T10:59:43;15.50;99.90
31747;DHT22;18319;48.974;8.462;2024-02-15T11:02:26;15.60;99.90
31747;DHT22;18319;48.974;8.462;2024-02-15T11:04:58;15.70;99.90
31747;DHT22;18319;48.974;8.462;2024-02-15T11:07:28;15.70;99.90
31747;DHT22;18319;48.974;8.462;2024-02-15T11:09:57;15.50;99.90
31747;DHT22;18319;48.974;8.462;2024-02-15T11:12:24;15.60;99.90
31747;DHT22;18319;48.974;8.462;2024-02-15T11:14:54;15.60;99.90
31747;DHT22;18319;48.974;8.462;2024-02-15T11:17:46;15.60;99.90
31747;DHT22;18319;48.974;8.462;2024-02-15T11:20:48;15.70;99.90
31747;DHT22;18319;48.974;8.462;2024-02-15T11:23:24;15.70;99.90
31747;DHT22;18319;48.974;8.462;2024-02-15T11:25:52;15.70;99.90
31747;DHT22;18319;48.974;8.462;2024-02-15T11:28:35;15.90;99.90
31747;DHT22;18319;48.974;8.462;2024-02-15T11:31:10;16.00;99.90
31747;DHT22;18319;48.974;8.462;2024-02-15T11:33:39;16.20;99.90
31747;DHT22;18319;48.974;8.462;2024-02-15T11:36:06;16.20;99.90
31747;DHT22;18319;48.974;8.462;2024-02-15T11:38:34;16.10;99.90
31747;DHT22;18319;48.974;8.462;2024-02-15T11:41:04;16.20;99.90
31747;DHT22;18319;48.974;8.462;2024-02-15T11:43:46;16.30;99.90
31747;DHT22;18319;48.974;8.462;2024-02-15T11:46:17;16.40;99.90
31747;DHT22;18319;48.974;8.462;2024-02-15T11:48:44;16.40;99.90
31747;DHT22;18319;48.974;8.462;2024-02-15T11:51:25;16.30;99.90
31747;DHT22;18319;48.974;8.462;2024-02-15T11:54:02;16.30;99.90
31747;DHT22;18319;48.974;8.462;2024-02-15T11:56:31;16.30;99.90
31747;DHT22;18319;48.974;8.462;2024-02-15T11:59:03;16.40;99.90
31747;DHT22;18319;48.974;8.462;2024-02-15T12:01:33;16.60;99.90
31747;DHT22;18319;48.974;8.462;2024-02-15T12:04:18;16.70;99.90
31747;DHT22;18319;48.974;8.462;2024-02-15T12:07:13;16.70;99.90
31747;DHT22;18319;48.974;8.462;2024-02-15T12:09:58;16.60;99.90
31747;DHT22;18319;48.974;8.462;2024-02-15T12:12:50;16.70;99.90
31747;DHT22;18319;48.974;8.462;2024-02-15T12:15:35;16.90;99.90
31747;DHT22;18319;48.974;8.462;2024-02-15T12:18:20;16.80;99.90
31747;DHT22;18319;48.974;8.462;2024-02-15T12:21:08;16.70;99.90
31747;DHT22;18319;48.974;8.462;2024-02-15T12:23:38;16.60;99.90
31747;DHT22;18319;48.974;8.462;2024-02-15T12:26:06;16.70;99.90
31747;DHT22;18319;48.974;8.462;2024-02-15T12:28:34;16.80;99.90
31747;DHT22;18319;48.974;8.462;2024-02-15T12:31:01;16.90;99.90
31747;DHT22;18319;48.974;8.462;2024-02-15T12:33:33;17.00;99.90
31747;DHT22;18319;48.974;8.462;2024-02-15T12:36:04;16.90;99.90
31747;DHT22;18319;48.974;8.462;2024-02-15T12:38:31;17.00;99.90
31747;DHT22;18319;48.974;8.462;2024-02-15T12:41:00;17.00;99.90
31747;DHT22;18319;48.974;8.462;2024-02-15T12:43:27;16.80;99.90
31747;DHT22;18319;48.974;8.462;2024-02-15T12:45:54;16.80;99.90
31747;DHT22;18319;48.974;8.462;2024-02-15T12:48:22;17.00;99.90
31747;DHT22;18319;48.974;8.462;2024-02-15T12:50:50;17.00;99.90
31747;DHT22;18319;48.974;8.462;2024-02-15T12:53:21;16.90;99.90
31747;DHT22;18319;48.974;8.462;2024-02-15T12:55:53;17.10;99.90
31747;DHT22;18319;48.974;8.462;2024-02-15T12:58:21;17.10;99.90
31747;DHT22;18319;48.974;8.462;2024-02-15T13:00:50;17.10;99.90
31747;DHT22;18319;48.974;8.462;2024-02-15T13:03:21;17.10;99.90
31747;DHT22;18319;48.974;8.462;2024-02-15T13:05:47;17.20;99.90
31747;DHT22;18319;48.974;8.462;2024-02-15T13:08:16;17.20;99.90
31747;DHT22;18319;48.974;8.462;2024-02-15T13:10:45;17.20;99.90
31747;DHT22;18319;48.974;8.462;2024-02-15T13:13:13;17.30;99.90
31747;DHT22;18319;48.974;8.462;2024-02-15T13:15:41;17.20;99.90
31747;DHT22;18319;48.974;8.462;2024-02-15T13:18:09;17.20;99.90
31747;DHT22;18319;48.974;8.462;2024-02-15T13:20:39;17.10;99.90
31747;DHT22;18319;48.974;8.462;2024-02-15T13:23:07;17.10;99.90
31747;DHT22;18319;48.974;8.462;2024-02-15T13:25:42;17.30;99.90
31747;DHT22;18319;48.974;8.462;2024-02-15T13:28:09;17.30;99.90
31747;DHT22;18319;48.974;8.462;2024-02-15T13:30:38;17.20;99.90
31747;DHT22;18319;48.974;8.462;2024-02-15T13:33:06;17.20;99.90
31747;DHT22;18319;48.974;8.462;2024-02-15T13:35:33;17.20;99.90
31747;DHT22;18319;48.974;8.462;2024-02-15T13:38:00;17.20;99.90
31747;DHT22;18319;48.974;8.462;2024-02-15T13:40:28;17.20;99.90
31747;DHT22;18319;48.974;8.462;2024-02-15T13:42:58;17.20;99.90
31747;DHT22;18319;48.974;8.462;2024-02-15T13:45:28;17.40;99.90
31747;DHT22;18319;48.974;8.462;2024-02-15T13:47:58;17.40;99.90
31747;DHT22;18319;48.974;8.462;2024-02-15T13:50:27;17.30;99.90
31747;DHT22;18319;48.974;8.462;2024-02-15T13:52:54;17.50;99.90
31747;DHT22;18319;48.974;8.462;2024-02-15T13:55:21;17.50;99.90
31747;DHT22;18319;48.974;8.462;2024-02-15T13:57:48;17.30;99.90
31747;DHT22;18319;48.974;8.462;2024-02-15T14:00:17;17.50;99.90
31747;DHT22;18319;48.974;8.462;2024-02-15T14:02:48;17.50;99.90
31747;DHT22;18319;48.974;8.462;2024-02-15T14:05:15;17.60;99.90
31747;DHT22;18319;48.974;8.462;2024-02-15T14:07:46;17.60;99.90
31747;DHT22;18319;48.974;8.462;2024-02-15T14:10:13;17.50;99.90
31747;DHT22;18319;48.974;8.462;2024-02-15T14:12:40;17.20;99.90
31747;DHT22;18319;48.974;8.462;2024-02-15T14:15:07;17.30;99.90
31747;DHT22;18319;48.974;8.462;2024-02-15T14:17:35;17.30;99.90
31747;DHT22;18319;48.974;8.462;2024-02-15T14:20:02;17.20;99.90
31747;DHT22;18319;48.974;8.462;2024-02-15T14:22:34;17.20;99.90
31747;DHT22;18319;48.974;8.462;2024-02-15T14:25:00;17.20;99.90
31747;DHT22;18319;48.974;8.462;2024-02-15T14:27:29;17.20;99.90
31747;DHT22;18319;48.974;8.462;2024-02-15T14:29:56;17.30;99.90
31747;DHT22;18319;48.974;8.462;2024-02-15T14:32:42;17.30;99.90
31747;DHT22;18319;48.974;8.462;2024-02-15T14:35:30;17.40;99.90
31747;DHT22;18319;48.974;8.462;2024-02-15T14:37:57;17.30;99.90
31747;DHT22;18319;48.974;8.462;2024-02-15T14:40:25;17.20;99.90
31747;DHT22;18319;48.974;8.462;2024-02-15T14:42:52;17.10;99.90
31747;DHT22;18319;48.974;8.462;2024-02-15T14:45:19;17.10;99.90
31747;DHT22;18319;48.974;8.462;2024-02-15T14:47:49;17.10;99.90
31747;DHT22;18319;48.974;8.462;2024-02-15T14:50:16;17.00;99.90
31747;DHT22;18319;48.974;8.462;2024-02-15T14:52:43;17.00;99.90
31747;DHT22;18319;48.974;8.462;2024-02-15T14:55:09;17.00;99.90
31747;DHT22;18319;48.974;8.462;2024-02-15T14:57:36;16.90;99.90
31747;DHT22;18319;48.974;8.462;2024-02-15T15:00:05;16.90;99.90
31747;DHT22;18319;48.974;8.462;2024-02-15T15:02:36;16.90;99.90
31747;DHT22;18319;48.974;8.462;2024-02-15T15:05:06;16.90;99.90
31747;DHT22;18319;48.974;8.462;2024-02-15T15:07:50;16.80;99.90
31747;DHT22;18319;48.974;8.462;2024-02-15T15:10:34;16.80;99.90
31747;DHT22;18319;48.974;8.462;2024-02-15T15:13:18;16.80;99.90
31747;DHT22;18319;48.974;8.462;2024-02-15T15:15:45;16.70;99.90
31747;DHT22;18319;48.974;8.462;2024-02-15T15:18:12;16.60;99.90
31747;DHT22;18319;48.974;8.462;2024-02-15T15:20:41;16.70;99.90
31747;DHT22;18319;48.974;8.462;2024-02-15T15:23:07;16.70;99.90
31747;DHT22;18319;48.974;8.462;2024-02-15T15:25:35;16.60;99.90
31747;DHT22;18319;48.974;8.462;2024-02-15T15:28:03;16.50;99.90
31747;DHT22;18319;48.974;8.462;2024-02-15T15:30:30;16.50;99.90
31747;DHT22;18319;48.974;8.462;2024-02-15T15:32:57;16.50;99.90
31747;DHT22;18319;48.974;8.462;2024-02-15T15:35:26;16.30;99.90
31747;DHT22;18319;48.974;8.462;2024-02-15T15:37:54;16.40;99.90
31747;DHT22;18319;48.974;8.462;2024-02-15T15:40:23;16.30;99.90
31747;DHT22;18319;48.974;8.462;2024-02-15T15:42:50;16.30;99.90
31747;DHT22;18319;48.974;8.462;2024-02-15T15:45:17;16.20;99.90